createdAt,value
2022-09-22T00:00:05.470Z,88.52
2022-09-22T00:02:37.402Z,88.33
2022-09-22T00:05:09.449Z,88.64
2022-09-22T00:07:41.381Z,88.49
2022-09-22T00:10:13.480Z,88.73
2022-09-22T00:12:47.298Z,88.99
2022-09-22T00:15:19.330Z,88.94
2022-09-22T00:17:51.312Z,89.25
2022-09-22T00:20:23.276Z,89.63
2022-09-22T00:22:55.512Z,89.64
2022-09-22T00:25:27.461Z,89.97
2022-09-22T00:27:59.373Z,90.29
2022-09-22T00:30:31.360Z,90.65
2022-09-22T00:33:03.294Z,90.71
2022-09-22T00:35:38.158Z,90.78
2022-09-22T00:38:10.436Z,90.62
2022-09-22T00:40:42.436Z,90.60
2022-09-22T00:43:17.985Z,90.76
2022-09-22T00:45:56.469Z,90.55
2022-09-22T00:48:33.440Z,90.77
2022-09-22T00:51:09.391Z,91.06
2022-09-22T00:53:42.309Z,91.26
2022-09-22T00:56:26.606Z,91.06
2022-09-22T00:59:08.344Z,91.06
2022-09-22T01:01:40.688Z,90.89
2022-09-22T01:04:13.050Z,91.02
2022-09-22T01:06:46.535Z,91.35
2022-09-22T01:09:18.484Z,91.17
2022-09-22T01:11:50.912Z,91.45
2022-09-22T01:14:58.137Z,91.55
2022-09-22T01:17:56.095Z,91.73
2022-09-22T01:20:55.518Z,91.63
2022-09-22T01:23:49.990Z,91.94
2022-09-22T01:26:44.869Z,92.21
2022-09-22T01:30:15.135Z,92.21
2022-09-22T01:33:13.802Z,92.33
2022-09-22T01:36:01.830Z,92.02
2022-09-22T01:38:55.314Z,92.31
2022-09-22T01:41:51.957Z,92.13
2022-09-22T01:44:37.174Z,92.25
2022-09-22T01:47:48.446Z,92.43
2022-09-22T01:50:40.527Z,92.10
2022-09-22T01:53:16.099Z,92.12
2022-09-22T01:55:55.035Z,91.59
2022-09-22T01:58:32.705Z,91.77
2022-09-22T02:01:15.857Z,91.75
2022-09-22T02:04:00.507Z,91.77
2022-09-22T02:06:40.242Z,91.92
2022-09-22T02:09:17.403Z,91.86
2022-09-22T02:11:49.616Z,91.99
2022-09-22T02:14:21.605Z,92.23
2022-09-22T02:16:54.727Z,92.23
2022-09-22T02:19:41.168Z,92.01
2022-09-22T02:22:13.360Z,92.00
2022-09-22T02:24:47.225Z,92.03
2022-09-22T02:27:36.758Z,92.18
2022-09-22T02:30:11.945Z,92.19
2022-09-22T02:32:49.173Z,92.31
2022-09-22T02:35:22.724Z,92.94
2022-09-22T02:38:10.481Z,93.15
2022-09-22T02:41:06.601Z,93.63
2022-09-22T02:43:52.278Z,94.01
2022-09-22T02:46:27.410Z,94.10
2022-09-22T02:49:12.171Z,94.33
2022-09-22T02:51:46.650Z,94.45
2022-09-22T02:54:18.633Z,94.78
2022-09-22T02:56:54.262Z,94.96
2022-09-22T02:59:26.182Z,95.17
2022-09-22T03:01:58.157Z,95.57
2022-09-22T03:04:30.297Z,95.24
2022-09-22T03:07:02.427Z,95.09
2022-09-22T03:09:34.429Z,95.07
2022-09-22T03:12:06.664Z,95.71
2022-09-22T03:14:38.580Z,95.80
2022-09-22T03:17:10.611Z,96.00
2022-09-22T03:19:53.437Z,96.11
2022-09-22T03:22:25.451Z,96.57
2022-09-22T03:24:57.334Z,97.02
2022-09-22T03:27:29.317Z,97.16
2022-09-22T03:30:01.269Z,98.06
2022-09-22T03:32:33.820Z,97.62
2022-09-22T03:35:07.228Z,97.77
2022-09-22T03:37:39.113Z,97.61
2022-09-22T03:40:11.316Z,97.43
2022-09-22T03:42:44.363Z,97.49
2022-09-22T03:45:16.692Z,97.89
2022-09-22T03:47:48.692Z,97.96
2022-09-22T03:50:21.918Z,97.75
2022-09-22T03:52:53.878Z,97.32
2022-09-22T03:55:25.902Z,97.46
2022-09-22T03:57:57.797Z,97.58
2022-09-22T04:00:29.831Z,97.63
2022-09-22T04:03:01.728Z,97.53
2022-09-22T04:05:33.721Z,97.38
2022-09-22T04:08:05.670Z,97.05
2022-09-22T04:10:37.627Z,97.02
2022-09-22T04:13:09.562Z,96.58
2022-09-22T04:15:42.471Z,97.27
2022-09-22T04:18:14.656Z,97.06
2022-09-22T04:20:46.591Z,98.07
2022-09-22T04:23:18.518Z,97.69
2022-09-22T04:25:50.423Z,98.20
2022-09-22T04:28:22.606Z,98.21
2022-09-22T04:30:55.419Z,98.33
2022-09-22T04:33:27.409Z,98.15
2022-09-22T04:35:59.762Z,97.54
2022-09-22T04:38:31.835Z,97.67
2022-09-22T04:41:03.798Z,97.43
2022-09-22T04:43:35.725Z,97.86
2022-09-22T04:46:07.700Z,97.44
2022-09-22T04:48:39.624Z,97.38
2022-09-22T04:51:11.591Z,97.17
2022-09-22T04:53:43.546Z,97.21
2022-09-22T04:56:16.045Z,97.12
2022-09-22T04:58:48.010Z,97.59
2022-09-22T05:01:20.103Z,97.71
2022-09-22T05:03:54.023Z,97.59
2022-09-22T05:06:26.462Z,97.62
2022-09-22T05:08:58.729Z,97.95
2022-09-22T05:11:31.386Z,97.74
2022-09-22T05:14:03.352Z,97.67
2022-09-22T05:16:35.492Z,97.38
2022-09-22T05:19:09.775Z,97.16
2022-09-22T05:21:41.817Z,96.98
2022-09-22T05:24:13.842Z,97.27
2022-09-22T05:26:45.732Z,97.66
2022-09-22T05:29:18.386Z,96.89
2022-09-22T05:31:50.395Z,97.18
2022-09-22T05:34:22.585Z,97.54
2022-09-22T05:36:54.548Z,97.18
2022-09-22T05:39:26.462Z,97.23
2022-09-22T05:41:58.425Z,96.74
2022-09-22T05:44:30.397Z,97.25
2022-09-22T05:47:02.856Z,96.71
2022-09-22T05:49:34.752Z,97.05
2022-09-22T05:52:06.671Z,96.98
2022-09-22T05:54:38.565Z,97.53
2022-09-22T05:57:10.571Z,97.49
2022-09-22T05:59:42.600Z,97.10
2022-09-22T06:02:25.551Z,96.90
2022-09-22T06:04:58.513Z,96.65
2022-09-22T06:07:30.438Z,96.45
2022-09-22T06:10:02.341Z,96.32
2022-09-22T06:12:34.274Z,95.69
2022-09-22T06:15:06.993Z,95.49
2022-09-22T06:17:38.981Z,96.17
2022-09-22T06:20:10.888Z,95.08
2022-09-22T06:22:45.085Z,94.87
2022-09-22T06:25:17.344Z,94.76
2022-09-22T06:28:05.338Z,95.13
2022-09-22T06:30:41.321Z,94.55
2022-09-22T06:33:13.341Z,94.89
2022-09-22T06:35:46.271Z,94.63
2022-09-22T06:38:18.387Z,94.52
2022-09-22T06:40:51.393Z,94.16
2022-09-22T06:43:23.393Z,94.37
2022-09-22T06:46:00.252Z,93.63
2022-09-22T06:48:32.343Z,93.81
2022-09-22T06:51:04.400Z,92.31
2022-09-22T06:53:36.347Z,92.71
2022-09-22T06:56:09.044Z,91.58
2022-09-22T06:59:08.406Z,91.17
2022-09-22T07:01:34.600Z,90.65
2022-09-22T07:04:07.299Z,89.74
2022-09-22T07:06:40.685Z,88.74
2022-09-22T07:09:12.813Z,86.90
2022-09-22T07:11:45.187Z,86.34
2022-09-22T07:14:19.068Z,84.74
2022-09-22T07:16:52.670Z,82.99
2022-09-22T07:19:24.570Z,82.19
2022-09-22T07:21:56.607Z,81.13
2022-09-22T07:24:28.504Z,79.48
2022-09-22T07:27:04.327Z,78.12
2022-09-22T07:29:39.664Z,78.82
2022-09-22T07:32:11.657Z,77.54
2022-09-22T07:34:43.878Z,76.89
2022-09-22T07:37:16.102Z,76.03
2022-09-22T07:39:48.250Z,75.78
2022-09-22T07:42:20.442Z,74.65
2022-09-22T07:45:10.858Z,73.30
2022-09-22T07:48:04.439Z,73.65
2022-09-22T07:50:36.422Z,74.59
2022-09-22T07:53:08.343Z,72.25
2022-09-22T07:55:40.681Z,72.15
2022-09-22T07:58:17.156Z,71.35
2022-09-22T08:00:49.442Z,71.02
2022-09-22T08:03:21.450Z,68.32
2022-09-22T08:06:06.285Z,69.18
2022-09-22T08:08:43.565Z,67.52
2022-09-22T08:11:18.707Z,66.11
2022-09-22T08:14:00.759Z,62.71
2022-09-22T08:16:40.004Z,61.49
2022-09-22T08:19:13.336Z,60.85
2022-09-22T08:21:49.294Z,58.31
2022-09-22T08:24:22.887Z,58.82
2022-09-22T08:26:58.134Z,52.59
2022-09-22T08:29:31.532Z,53.65
2022-09-22T08:32:03.482Z,51.87
2022-09-22T08:34:35.417Z,49.72
2022-09-22T08:37:07.347Z,49.84
2022-09-22T08:39:39.510Z,48.07
2022-09-22T08:42:22.926Z,45.85
2022-09-22T08:45:29.627Z,45.80
2022-09-22T08:48:39.153Z,44.10
2022-09-22T08:51:43.163Z,44.52
2022-09-22T08:54:17.162Z,44.73
2022-09-22T08:57:21.407Z,47.42
2022-09-22T09:00:05.856Z,47.78
2022-09-22T09:02:42.593Z,49.17
2022-09-22T09:05:39.210Z,50.31
2022-09-22T09:08:19.911Z,51.87
2022-09-22T09:11:29.897Z,50.13
2022-09-22T09:14:26.306Z,50.72
2022-09-22T09:17:15.190Z,50.97
2022-09-22T09:20:02.189Z,52.10
2022-09-22T09:22:45.016Z,49.40
2022-09-22T09:25:27.996Z,48.62
2022-09-22T09:28:07.118Z,47.15
2022-09-22T09:30:52.873Z,46.31
2022-09-22T09:33:46.171Z,40.50
2022-09-22T09:36:22.882Z,36.59
2022-09-22T09:38:58.206Z,33.84
2022-09-22T09:41:32.706Z,32.72
2022-09-22T09:44:05.449Z,34.46
2022-09-22T09:46:50.376Z,37.55
2022-09-22T09:49:24.199Z,37.85
2022-09-22T09:52:02.159Z,38.23
2022-09-22T09:54:34.130Z,39.96
2022-09-22T09:57:13.977Z,39.28
2022-09-22T10:00:07.162Z,41.63
2022-09-22T10:02:51.012Z,41.67
2022-09-22T10:05:26.857Z,40.88
2022-09-22T10:08:04.461Z,37.83
2022-09-22T10:10:41.201Z,33.89
2022-09-22T10:13:16.025Z,30.19
2022-09-22T10:16:04.339Z,27.53
2022-09-22T10:18:40.526Z,25.41
2022-09-22T10:21:18.544Z,26.71
2022-09-22T10:23:56.494Z,28.78
2022-09-22T10:26:31.464Z,29.20
2022-09-22T10:29:21.200Z,26.07
2022-09-22T10:32:12.890Z,26.39
2022-09-22T10:34:54.854Z,26.49
2022-09-22T10:37:29.639Z,27.14
2022-09-22T10:40:03.861Z,27.66
2022-09-22T10:42:40.344Z,31.08
2022-09-22T10:45:15.724Z,32.76
2022-09-22T10:48:16.484Z,34.30
2022-09-22T10:51:09.316Z,36.00
2022-09-22T10:53:59.193Z,37.43
2022-09-22T10:56:39.779Z,38.05
2022-09-22T10:59:32.714Z,37.55
2022-09-22T11:02:41.443Z,39.55
2022-09-22T11:05:43.843Z,40.78
2022-09-22T11:08:38.833Z,38.42
2022-09-22T11:11:41.799Z,38.00
2022-09-22T11:14:32.591Z,38.09
2022-09-22T11:17:32.372Z,39.48
2022-09-22T11:20:25.545Z,35.09
2022-09-22T11:23:04.563Z,29.80
2022-09-22T11:25:51.729Z,27.00
2022-09-22T11:29:00.749Z,23.47
2022-09-22T11:31:51.172Z,22.58
2022-09-22T11:34:48.530Z,22.54
2022-09-22T11:37:50.418Z,24.00
2022-09-22T11:41:15.971Z,25.67
2022-09-22T11:44:40.989Z,26.21
2022-09-22T11:47:16.381Z,25.06
2022-09-22T11:50:11.961Z,27.53
2022-09-22T11:53:24.273Z,29.79
2022-09-22T11:56:17.156Z,29.88
2022-09-22T11:58:53.297Z,26.49
2022-09-22T12:01:31.081Z,23.55
2022-09-22T12:04:30.661Z,22.57
2022-09-22T12:07:07.380Z,22.30
2022-09-22T12:10:00.791Z,22.76
2022-09-22T12:12:33.515Z,24.18
2022-09-22T12:15:29.649Z,26.66
2022-09-22T12:18:26.920Z,29.76
2022-09-22T12:21:18.609Z,31.37
2022-09-22T12:23:52.283Z,31.71
2022-09-22T12:26:45.277Z,32.11
2022-09-22T12:29:17.109Z,33.16
2022-09-22T12:31:52.271Z,34.32
2022-09-22T12:34:39.290Z,33.59
2022-09-22T12:37:40.776Z,32.82
2022-09-22T12:40:27.990Z,33.77
2022-09-22T12:43:00.085Z,36.08
2022-09-22T12:45:41.324Z,36.40
2022-09-22T12:48:37.230Z,36.42
2022-09-22T12:51:24.523Z,36.93
2022-09-22T12:54:24.243Z,36.93
2022-09-22T12:57:00.252Z,34.98
2022-09-22T12:59:38.146Z,35.48
2022-09-22T13:02:18.860Z,34.24
2022-09-22T13:05:00.195Z,36.47
2022-09-22T13:07:37.713Z,33.65
2022-09-22T13:10:24.805Z,31.39
2022-09-22T13:13:03.023Z,32.01
2022-09-22T13:15:47.207Z,32.97
2022-09-22T13:19:06.989Z,34.24
2022-09-22T13:21:40.275Z,34.68
2022-09-22T13:24:19.569Z,36.94
2022-09-22T13:27:04.287Z,35.96
2022-09-22T13:29:36.529Z,35.35
2022-09-22T13:32:26.728Z,33.68
2022-09-22T13:34:58.692Z,34.23
2022-09-22T13:37:31.401Z,32.46
2022-09-22T13:40:03.460Z,32.56
2022-09-22T13:42:37.091Z,33.33
2022-09-22T13:45:24.089Z,33.46
2022-09-22T13:48:16.848Z,32.75
2022-09-22T13:50:55.782Z,34.92
2022-09-22T13:53:27.830Z,32.61
2022-09-22T13:56:00.274Z,34.67
2022-09-22T13:58:43.274Z,34.61
2022-09-22T14:01:19.867Z,34.96
2022-09-22T14:03:53.500Z,32.98
2022-09-22T14:06:31.193Z,33.81
2022-09-22T14:09:04.043Z,34.00
2022-09-22T14:11:37.204Z,33.37
2022-09-22T14:14:23.682Z,34.26
2022-09-22T14:17:26.769Z,34.94
2022-09-22T14:20:03.714Z,34.19
2022-09-22T14:22:42.365Z,34.96
2022-09-22T14:25:18.959Z,35.36
2022-09-22T14:27:55.516Z,35.54
2022-09-22T14:30:30.347Z,36.54
2022-09-22T14:33:04.177Z,37.37
2022-09-22T14:35:37.451Z,36.85
2022-09-22T14:38:20.853Z,38.11
2022-09-22T14:40:59.237Z,37.96
2022-09-22T14:43:42.507Z,36.28
2022-09-22T14:46:33.729Z,36.42
2022-09-22T14:49:43.048Z,36.31
2022-09-22T14:52:33.426Z,36.08
2022-09-22T14:55:14.684Z,35.00
2022-09-22T14:57:49.370Z,34.34
2022-09-22T15:00:40.022Z,33.55
2022-09-22T15:03:28.429Z,35.63
2022-09-22T15:06:13.064Z,35.13
2022-09-22T15:08:51.459Z,34.04
2022-09-22T15:11:54.908Z,35.08
2022-09-22T15:14:41.795Z,35.13
2022-09-22T15:17:57.079Z,35.04
2022-09-22T15:20:46.648Z,35.03
2022-09-22T15:23:27.558Z,34.56
2022-09-22T15:26:04.172Z,34.91
2022-09-22T15:28:38.052Z,36.58
2022-09-22T15:31:20.132Z,35.49
2022-09-22T15:33:56.332Z,36.15
2022-09-22T15:36:33.068Z,36.02
2022-09-22T15:39:24.328Z,35.07
2022-09-22T15:41:56.462Z,36.39
2022-09-22T15:44:28.577Z,35.45
2022-09-22T15:47:01.458Z,36.67
2022-09-22T15:49:35.191Z,36.46
2022-09-22T15:52:07.263Z,36.38
2022-09-22T15:54:39.259Z,36.76
2022-09-22T15:57:11.361Z,37.08
2022-09-22T15:59:43.440Z,36.94
2022-09-22T16:02:16.207Z,37.20
2022-09-22T16:04:48.207Z,37.46
2022-09-22T16:07:21.012Z,37.10
2022-09-22T16:09:53.268Z,37.71
2022-09-22T16:12:26.042Z,38.15
2022-09-22T16:14:58.306Z,39.16
2022-09-22T16:17:30.479Z,38.50
2022-09-22T16:20:04.654Z,37.94
2022-09-22T16:22:36.823Z,39.63
2022-09-22T16:25:11.504Z,39.63
2022-09-22T16:27:43.796Z,39.16
2022-09-22T16:30:17.137Z,39.32
2022-09-22T16:32:49.573Z,41.60
2022-09-22T16:35:25.062Z,42.35
2022-09-22T16:37:57.559Z,41.54
2022-09-22T16:40:33.490Z,42.40
2022-09-22T16:43:07.808Z,43.37
2022-09-22T16:45:59.032Z,45.29
2022-09-22T16:48:33.003Z,45.83
2022-09-22T16:51:05.729Z,45.15
2022-09-22T16:53:39.044Z,46.94
2022-09-22T16:56:11.243Z,48.28
2022-09-22T16:58:43.439Z,48.18
2022-09-22T17:01:19.642Z,47.17
2022-09-22T17:03:52.980Z,48.29
2022-09-22T17:06:27.492Z,47.27
2022-09-22T17:08:59.991Z,47.88
2022-09-22T17:11:36.640Z,48.89
2022-09-22T17:14:13.920Z,50.77
2022-09-22T17:16:49.990Z,50.91
2022-09-22T17:19:26.404Z,51.79
2022-09-22T17:21:59.296Z,52.68
2022-09-22T17:24:31.302Z,53.13
2022-09-22T17:27:03.266Z,53.26
2022-09-22T17:29:35.265Z,54.66
2022-09-22T17:32:08.167Z,55.28
2022-09-22T17:34:41.255Z,55.81
2022-09-22T17:37:15.722Z,56.71
2022-09-22T17:39:51.298Z,55.53
2022-09-22T17:42:24.391Z,56.63
2022-09-22T17:44:56.349Z,56.82
2022-09-22T17:47:46.726Z,57.36
2022-09-22T17:50:37.272Z,58.22
2022-09-22T17:53:28.115Z,58.80
2022-09-22T17:56:05.178Z,59.82
2022-09-22T17:58:37.140Z,59.63
2022-09-22T18:01:09.107Z,59.80
2022-09-22T18:03:45.189Z,60.88
2022-09-22T18:06:19.246Z,61.37
2022-09-22T18:08:51.967Z,61.36
2022-09-22T18:11:27.769Z,59.38
2022-09-22T18:14:00.115Z,59.50
2022-09-22T18:16:33.427Z,59.46
2022-09-22T18:19:06.795Z,59.63
2022-09-22T18:21:39.526Z,60.50
2022-09-22T18:24:18.829Z,61.40
2022-09-22T18:26:50.871Z,62.52
2022-09-22T18:29:22.806Z,62.24
2022-09-22T18:31:59.027Z,62.44
2022-09-22T18:34:32.045Z,63.01
2022-09-22T18:37:05.002Z,63.35
2022-09-22T18:39:40.798Z,63.69
2022-09-22T18:42:13.938Z,63.83
2022-09-22T18:44:47.320Z,63.96
2022-09-22T18:47:21.326Z,64.34
2022-09-22T18:49:53.281Z,65.65
2022-09-22T18:52:25.733Z,65.91
2022-09-22T18:54:59.014Z,66.39
2022-09-22T18:57:31.089Z,66.58
2022-09-22T19:00:04.417Z,67.28
2022-09-22T19:02:36.443Z,67.99
2022-09-22T19:05:09.068Z,68.02
2022-09-22T19:07:43.932Z,68.81
2022-09-22T19:10:22.451Z,69.12
2022-09-22T19:12:54.675Z,69.60
2022-09-22T19:15:27.162Z,69.71
2022-09-22T19:17:59.108Z,69.79
2022-09-22T19:20:31.370Z,70.11
2022-09-22T19:23:03.513Z,70.54
2022-09-22T19:25:35.544Z,70.82
2022-09-22T19:28:07.859Z,71.51
2022-09-22T19:30:40.316Z,71.87
2022-09-22T19:33:12.405Z,71.95
2022-09-22T19:35:44.358Z,71.90
2022-09-22T19:38:17.996Z,71.88
2022-09-22T19:40:49.999Z,71.75
2022-09-22T19:43:24.513Z,72.12
2022-09-22T19:45:56.514Z,72.96
2022-09-22T19:48:29.057Z,72.60
2022-09-22T19:51:03.404Z,72.68
2022-09-22T19:53:35.438Z,72.56
2022-09-22T19:56:07.359Z,72.58
2022-09-22T19:58:39.331Z,72.63
2022-09-22T20:01:35.254Z,71.97
2022-09-22T20:04:13.428Z,71.93
2022-09-22T20:06:48.909Z,72.51
2022-09-22T20:09:21.864Z,72.98
2022-09-22T20:11:53.966Z,73.77
2022-09-22T20:14:27.229Z,73.40
2022-09-22T20:17:03.858Z,73.16
2022-09-22T20:19:40.441Z,73.10
2022-09-22T20:22:26.305Z,72.40
2022-09-22T20:25:01.536Z,72.31
2022-09-22T20:27:35.979Z,72.43
2022-09-22T20:30:09.048Z,71.96
2022-09-22T20:32:41.499Z,72.27
2022-09-22T20:35:17.446Z,71.88
2022-09-22T20:37:49.677Z,71.84
2022-09-22T20:40:23.223Z,72.00
2022-09-22T20:42:55.460Z,72.19
2022-09-22T20:45:28.353Z,72.68
2022-09-22T20:48:00.742Z,71.84
2022-09-22T20:50:32.869Z,71.64
2022-09-22T20:53:06.155Z,71.08
2022-09-22T20:55:38.861Z,71.29
2022-09-22T20:58:12.793Z,70.88
2022-09-22T21:00:48.829Z,71.18
2022-09-22T21:03:20.946Z,71.01
2022-09-22T21:05:53.274Z,70.86
2022-09-22T21:08:44.042Z,70.57
2022-09-22T21:11:19.377Z,70.00
2022-09-22T21:13:58.871Z,70.31
2022-09-22T21:16:32.782Z,70.69
2022-09-22T21:19:05.368Z,70.61
2022-09-22T21:21:37.911Z,70.77
2022-09-22T21:24:11.118Z,70.77
2022-09-22T21:26:43.230Z,71.21
2022-09-22T21:29:15.230Z,71.33
2022-09-22T21:31:49.900Z,71.32
2022-09-22T21:34:21.957Z,71.57
2022-09-22T21:36:53.990Z,71.32
2022-09-22T21:39:25.978Z,71.21
2022-09-22T21:41:58.062Z,72.00
2022-09-22T21:44:30.154Z,71.79
2022-09-22T21:47:02.280Z,71.61
2022-09-22T21:49:34.298Z,72.15
2022-09-22T21:52:06.525Z,72.56
2022-09-22T21:54:38.473Z,72.41
2022-09-22T21:57:10.461Z,72.63
2022-09-22T21:59:42.375Z,72.94
2022-09-22T22:02:14.559Z,72.88
2022-09-22T22:04:46.613Z,73.26
2022-09-22T22:07:19.702Z,73.05
2022-09-22T22:09:52.035Z,72.84
2022-09-22T22:12:24.634Z,73.36
2022-09-22T22:14:57.194Z,73.26
2022-09-22T22:17:32.388Z,73.64
2022-09-22T22:20:04.766Z,73.48
2022-09-22T22:22:37.256Z,73.70
2022-09-22T22:25:18.503Z,73.73
2022-09-22T22:27:50.632Z,74.29
2022-09-22T22:30:22.767Z,74.06
2022-09-22T22:32:54.714Z,74.14
2022-09-22T22:35:27.235Z,74.86
2022-09-22T22:37:59.326Z,75.06
2022-09-22T22:40:32.194Z,75.32
2022-09-22T22:43:04.236Z,75.38
2022-09-22T22:45:36.151Z,75.42
2022-09-22T22:48:08.114Z,75.03
2022-09-22T22:50:40.388Z,75.42
2022-09-22T22:53:13.688Z,75.32
2022-09-22T22:56:00.508Z,75.38
2022-09-22T22:58:36.264Z,75.30
2022-09-22T23:01:17.881Z,76.21
2022-09-22T23:04:00.311Z,76.06
2022-09-22T23:06:44.039Z,76.04
2022-09-22T23:09:17.421Z,76.13
2022-09-22T23:11:49.545Z,75.91
2022-09-22T23:14:21.947Z,76.05
2022-09-22T23:16:54.002Z,76.22
2022-09-22T23:19:25.995Z,76.66
2022-09-22T23:21:59.137Z,77.03
2022-09-22T23:24:31.036Z,77.38
2022-09-22T23:27:02.959Z,77.76
2022-09-22T23:29:34.896Z,77.82
2022-09-22T23:32:06.897Z,77.98
2022-09-22T23:34:38.808Z,77.88
2022-09-22T23:37:10.727Z,78.08
2022-09-22T23:39:42.643Z,78.82
2022-09-22T23:42:14.542Z,78.76
2022-09-22T23:44:46.506Z,78.63
2022-09-22T23:47:18.497Z,79.22
2022-09-22T23:49:50.497Z,79.75
2022-09-22T23:52:22.549Z,79.33
2022-09-22T23:54:54.560Z,79.27
2022-09-22T23:57:26.478Z,79.88
2022-09-22T23:59:58.568Z,79.97
